Time;durP1;ratioP1;P1;durP2;ratioP2;P2;SDS_P1;SDS_P2;PMS_P1;PMS_P2;Temp;Humidity;BMP_temperature;BMP_pressure;BME280_temperature;BME280_humidity;BME280_pressure;Samples;Min_cycle;Max_cycle;Signal;HPM_P1;HPM_P2
2023/09/17 00:01:11;;;;;;;8.15;4.88;;;;;;;;;;4996730;28;20244;-54
2023/09/17 00:03:37;;;;;;;5.15;4.35;;;;;;;;;;5012396;28;20192;-54
2023/09/17 00:06:04;;;;;;;5.07;4.57;;;;;;;;;;4998463;28;20205;-55
2023/09/17 00:08:30;;;;;;;5.75;5.22;;;;;;;;;;4996308;28;20188;-55
2023/09/17 00:10:55;;;;;;;5.63;4.70;;;;;;;;;;5002271;28;20190;-54
2023/09/17 00:13:22;;;;;;;5.32;4.20;;;;;;;;;;5003850;28;20385;-54
2023/09/17 00:15:48;;;;;;;4.85;4.35;;;;;;;;;;5006213;28;20228;-54
2023/09/17 00:18:15;;;;;;;5.53;4.57;;;;;;;;;;5002176;28;20181;-54
2023/09/17 00:20:41;;;;;;;6.25;4.82;;;;;;;;;;4998281;28;20207;-54
2023/09/17 00:23:07;;;;;;;7.00;4.63;;;;;;;;;;5012666;28;20477;-54
2023/09/17 00:25:33;;;;;;;4.82;4.32;;;;;;;;;;4991545;28;20208;-54
2023/09/17 00:27:59;;;;;;;5.15;4.30;;;;;;;;;;4995511;28;20828;-54
2023/09/17 00:30:25;;;;;;;7.00;4.15;;;;;;;;;;4996501;28;20177;-55
2023/09/17 00:32:51;;;;;;;6.82;4.40;;;;;;;;;;5014186;28;20601;-55
2023/09/17 00:35:16;;;;;;;6.32;4.30;;;;;;;;;;5003322;28;20209;-55
2023/09/17 00:37:43;;;;;;;7.18;4.63;;;;;;;;;;4996748;28;20185;-55
2023/09/17 00:40:12;;;;;;;5.28;4.38;;;;;;;;;;5000126;28;20180;-55
2023/09/17 00:42:39;;;;;;;5.38;4.40;;;;;;;;;;4991640;28;20621;-54
2023/09/17 00:45:05;;;;;;;7.72;4.60;;;;;;;;;;4990827;28;20181;-54
2023/09/17 00:47:31;;;;;;;6.20;4.32;;;;;;;;;;4998800;28;20187;-54
2023/09/17 00:49:58;;;;;;;6.18;4.47;;;;;;;;;;4994317;28;20192;-54
2023/09/17 00:52:24;;;;;;;6.13;4.47;;;;;;;;;;4993364;28;20178;-54
2023/09/17 00:54:51;;;;;;;5.97;4.80;;;;;;;;;;5002894;28;20250;-54
2023/09/17 00:57:17;;;;;;;5.95;4.68;;;;;;;;;;5001797;28;20191;-54
2023/09/17 00:59:44;;;;;;;4.68;4.03;;;;;;;;;;4987707;28;20208;-54
2023/09/17 01:02:10;;;;;;;5.00;4.50;;;;;;;;;;5002737;28;20283;-54
2023/09/17 01:04:38;;;;;;;4.97;4.43;;;;;;;;;;4995203;28;20246;-54
2023/09/17 01:07:04;;;;;;;4.30;3.90;;;;;;;;;;4996429;28;20485;-54
2023/09/17 01:09:31;;;;;;;4.78;4.28;;;;;;;;;;4999367;28;20185;-54
2023/09/17 01:11:57;;;;;;;5.72;4.35;;;;;;;;;;5000955;28;20193;-54
2023/09/17 01:14:23;;;;;;;4.68;4.20;;;;;;;;;;4999297;28;20222;-54
2023/09/17 01:16:49;;;;;;;5.50;4.50;;;;;;;;;;4999691;28;20189;-54
2023/09/17 01:19:18;;;;;;;8.65;3.97;;;;;;;;;;4997250;28;20227;-54
2023/09/17 01:22:02;;;;;;;6.55;4.47;;;;;;;;;;4999916;28;20189;-54
2023/09/17 01:24:31;;;;;;;5.07;4.13;;;;;;;;;;4997713;28;20193;-55
2023/09/17 01:27:03;;;;;;;5.45;3.95;;;;;;;;;;4998340;28;20604;-55
2023/09/17 01:29:37;;;;;;;5.25;4.15;;;;;;;;;;4994613;28;20228;-55
2023/09/17 01:32:04;;;;;;;4.97;4.00;;;;;;;;;;5004836;28;20182;-55
2023/09/17 01:34:31;;;;;;;4.47;3.88;;;;;;;;;;4997027;28;20185;-55
2023/09/17 01:36:57;;;;;;;4.47;3.92;;;;;;;;;;5000073;28;20267;-55
2023/09/17 01:39:27;;;;;;;6.55;4.00;;;;;;;;;;4991490;28;20185;-55
2023/09/17 01:41:53;;;;;;;4.85;3.25;;;;;;;;;;5003208;28;20181;-55
2023/09/17 01:44:20;;;;;;;4.65;3.92;;;;;;;;;;5002743;28;20192;-55
2023/09/17 01:46:46;;;;;;;5.35;3.90;;;;;;;;;;5000806;28;20200;-55
2023/09/17 01:49:13;;;;;;;4.13;3.72;;;;;;;;;;5001558;28;20292;-55
2023/09/17 01:51:39;;;;;;;5.18;3.63;;;;;;;;;;5002928;28;20176;-55
2023/09/17 01:54:06;;;;;;;5.28;3.95;;;;;;;;;;5001498;28;20458;-55
2023/09/17 01:56:41;;;;;;;5.28;3.75;;;;;;;;;;5002623;28;20189;-55
2023/09/17 01:59:07;;;;;;;4.05;3.40;;;;;;;;;;4990339;28;20726;-55
2023/09/17 02:01:33;;;;;;;5.35;3.65;;;;;;;;;;4999559;28;20208;-55
2023/09/17 02:03:59;;;;;;;4.20;3.80;;;;;;;;;;5004351;28;20559;-55
2023/09/17 02:06:25;;;;;;;3.92;3.53;;;;;;;;;;5003326;28;20632;-55
2023/09/17 02:08:51;;;;;;;5.13;3.80;;;;;;;;;;4990210;28;20264;-55
2023/09/17 02:11:17;;;;;;;5.07;3.97;;;;;;;;;;4997002;28;20323;-55
2023/09/17 02:13:43;;;;;;;5.20;3.63;;;;;;;;;;5006651;28;20177;-55
2023/09/17 02:16:09;;;;;;;5.13;3.80;;;;;;;;;;5000782;28;20189;-55
2023/09/17 02:18:35;;;;;;;5.20;3.70;;;;;;;;;;4987926;28;20193;-55
2023/09/17 02:21:01;;;;;;;4.63;3.85;;;;;;;;;;4994061;28;20480;-55
2023/09/17 02:23:27;;;;;;;4.75;3.38;;;;;;;;;;4995009;28;20208;-55
2023/09/17 02:25:53;;;;;;;7.75;3.45;;;;;;;;;;4991950;28;20217;-55
2023/09/17 02:28:19;;;;;;;4.50;3.67;;;;;;;;;;4992169;28;20177;-55
2023/09/17 02:30:45;;;;;;;4.93;3.75;;;;;;;;;;4994654;28;20181;-55
2023/09/17 02:33:11;;;;;;;4.00;3.47;;;;;;;;;;5005760;28;20239;-55
2023/09/17 02:35:37;;;;;;;4.15;3.75;;;;;;;;;;5010099;28;20276;-55
2023/09/17 02:38:04;;;;;;;3.78;3.40;;;;;;;;;;5004854;28;20502;-55
2023/09/17 02:40:30;;;;;;;4.43;3.80;;;;;;;;;;5004676;28;20195;-55
2023/09/17 02:42:56;;;;;;;3.83;3.42;;;;;;;;;;5003590;28;20288;-55
2023/09/17 02:45:22;;;;;;;3.75;3.42;;;;;;;;;;5000023;28;20202;-55
2023/09/17 02:47:48;;;;;;;3.53;3.22;;;;;;;;;;4994310;28;20185;-55
2023/09/17 02:50:14;;;;;;;3.58;3.28;;;;;;;;;;4998721;28;20185;-55
2023/09/17 02:52:40;;;;;;;4.50;3.38;;;;;;;;;;5001703;28;20271;-55
2023/09/17 02:55:08;;;;;;;3.33;3.03;;;;;;;;;;5002227;28;20489;-55
2023/09/17 02:57:34;;;;;;;3.30;3.00;;;;;;;;;;4991557;28;20299;-55
2023/09/17 03:00:00;;;;;;;3.40;3.10;;;;;;;;;;4984054;28;20277;-55
2023/09/17 03:02:26;;;;;;;4.60;3.25;;;;;;;;;;4996063;28;20207;-55
2023/09/17 03:04:52;;;;;;;3.58;3.05;;;;;;;;;;5002071;28;20177;-55
2023/09/17 03:07:18;;;;;;;5.82;3.30;;;;;;;;;;4996167;28;20189;-55
2023/09/17 03:09:44;;;;;;;3.75;3.15;;;;;;;;;;4997471;28;20216;-55
2023/09/17 03:12:11;;;;;;;4.47;3.13;;;;;;;;;;5004075;28;20598;-55
2023/09/17 03:14:37;;;;;;;4.07;3.67;;;;;;;;;;4996551;28;20193;-55
2023/09/17 03:17:05;;;;;;;3.22;2.92;;;;;;;;;;5001420;28;20184;-55
2023/09/17 03:19:31;;;;;;;3.53;3.15;;;;;;;;;;5004354;28;20177;-55
2023/09/17 03:21:57;;;;;;;3.53;3.22;;;;;;;;;;5004653;28;20177;-55
2023/09/17 03:24:23;;;;;;;3.40;3.10;;;;;;;;;;5009297;28;20472;-55
2023/09/17 03:26:48;;;;;;;4.63;3.67;;;;;;;;;;5005793;28;20644;-55
2023/09/17 03:29:14;;;;;;;4.97;3.03;;;;;;;;;;4999118;28;20442;-55
2023/09/17 03:31:41;;;;;;;3.13;2.85;;;;;;;;;;5004938;28;20185;-55
2023/09/17 03:34:07;;;;;;;3.17;2.85;;;;;;;;;;5009151;28;20188;-55
2023/09/17 03:36:37;;;;;;;5.20;3.40;;;;;;;;;;5010025;28;20188;-54
2023/09/17 03:39:05;;;;;;;4.57;3.35;;;;;;;;;;5007524;28;20185;-54
2023/09/17 03:41:32;;;;;;;3.13;2.83;;;;;;;;;;4997492;28;20191;-54
2023/09/17 03:43:58;;;;;;;3.92;3.45;;;;;;;;;;4997405;28;20182;-54
2023/09/17 03:46:24;;;;;;;4.68;3.35;;;;;;;;;;5001032;28;20196;-54
2023/09/17 03:48:50;;;;;;;3.58;3.20;;;;;;;;;;5006776;28;20623;-54
2023/09/17 03:51:16;;;;;;;3.00;2.80;;;;;;;;;;4995762;28;20268;-55
2023/09/17 03:53:43;;;;;;;3.92;2.70;;;;;;;;;;5002518;28;20207;-55
2023/09/17 03:56:11;;;;;;;3.08;2.88;;;;;;;;;;5006138;28;20204;-55
2023/09/17 03:58:37;;;;;;;3.53;3.08;;;;;;;;;;4996134;28;20220;-55
2023/09/17 04:01:06;;;;;;;3.88;3.47;;;;;;;;;;5004296;28;20247;-55
2023/09/17 04:03:32;;;;;;;3.15;2.85;;;;;;;;;;4999604;28;20230;-56
2023/09/17 04:05:58;;;;;;;5.20;3.08;;;;;;;;;;5007797;28;20295;-56
2023/09/17 04:08:24;;;;;;;3.30;3.00;;;;;;;;;;5007563;28;20339;-56
2023/09/17 04:10:53;;;;;;;3.83;3.33;;;;;;;;;;4999499;28;20989;-56
2023/09/17 04:13:19;;;;;;;3.63;3.30;;;;;;;;;;5001875;28;20188;-55
2023/09/17 04:15:45;;;;;;;3.85;2.92;;;;;;;;;;4992775;28;20177;-56
2023/09/17 04:18:11;;;;;;;3.15;2.83;;;;;;;;;;5000612;28;20280;-55
2023/09/17 04:20:37;;;;;;;3.58;3.28;;;;;;;;;;4990063;28;20232;-55
2023/09/17 04:23:03;;;;;;;3.30;3.00;;;;;;;;;;4993387;28;20225;-55
2023/09/17 04:25:31;;;;;;;3.72;2.97;;;;;;;;;;4993675;28;20202;-55
2023/09/17 04:27:57;;;;;;;3.17;2.88;;;;;;;;;;5008034;28;20181;-55
2023/09/17 04:30:23;;;;;;;3.25;2.95;;;;;;;;;;5005071;28;20176;-55
2023/09/17 04:32:50;;;;;;;3.13;2.92;;;;;;;;;;4997220;28;20177;-56
2023/09/17 04:35:17;;;;;;;5.57;3.30;;;;;;;;;;5004673;28;20189;-56
2023/09/17 04:37:43;;;;;;;4.10;3.42;;;;;;;;;;4997974;28;20188;-56
2023/09/17 04:40:13;;;;;;;3.28;2.97;;;;;;;;;;5002327;28;20474;-56
2023/09/17 04:42:40;;;;;;;3.30;2.90;;;;;;;;;;5011150;28;20218;-56
2023/09/17 04:45:08;;;;;;;3.33;2.88;;;;;;;;;;5015718;28;20188;-56
2023/09/17 04:47:35;;;;;;;3.20;2.75;;;;;;;;;;5001700;28;20174;-56
2023/09/17 04:50:01;;;;;;;3.78;3.13;;;;;;;;;;4996257;28;20189;-56
2023/09/17 04:52:27;;;;;;;5.90;3.30;;;;;;;;;;4995297;28;20212;-56
2023/09/17 04:54:54;;;;;;;3.38;3.05;;;;;;;;;;4992384;28;20553;-56
2023/09/17 04:57:20;;;;;;;4.22;3.35;;;;;;;;;;4993808;28;20195;-56
2023/09/17 04:59:46;;;;;;;5.53;4.47;;;;;;;;;;4996763;28;20180;-56
2023/09/17 05:02:16;;;;;;;5.18;4.30;;;;;;;;;;4992345;28;20205;-55
2023/09/17 05:04:42;;;;;;;4.95;4.22;;;;;;;;;;4989579;28;20468;-55
2023/09/17 05:07:08;;;;;;;4.07;3.67;;;;;;;;;;5003272;28;20219;-56
2023/09/17 05:09:34;;;;;;;4.95;3.70;;;;;;;;;;4986215;28;20206;-56
2023/09/17 05:12:01;;;;;;;5.57;4.63;;;;;;;;;;4992722;28;20184;-56
2023/09/17 05:14:28;;;;;;;5.75;4.40;;;;;;;;;;5003332;28;20182;-56
2023/09/17 05:16:54;;;;;;;5.03;3.88;;;;;;;;;;4992797;28;20497;-56
2023/09/17 05:19:20;;;;;;;4.82;3.92;;;;;;;;;;4994649;28;20247;-56
2023/09/17 05:21:46;;;;;;;4.85;3.92;;;;;;;;;;5002311;28;20236;-56
2023/09/17 05:24:13;;;;;;;4.75;4.10;;;;;;;;;;4995361;28;20207;-56
2023/09/17 05:26:39;;;;;;;4.57;3.65;;;;;;;;;;4993782;28;20231;-55
2023/09/17 05:29:05;;;;;;;5.05;3.92;;;;;;;;;;4992141;28;20205;-55
2023/09/17 05:31:32;;;;;;;4.00;3.35;;;;;;;;;;4990105;28;20235;-55
2023/09/17 05:33:59;;;;;;;5.70;4.40;;;;;;;;;;5001584;28;20541;-55
2023/09/17 05:36:25;;;;;;;6.75;4.50;;;;;;;;;;4998443;28;20189;-55
2023/09/17 05:38:51;;;;;;;4.43;3.85;;;;;;;;;;5007069;28;20187;-55
2023/09/17 05:41:17;;;;;;;6.70;3.80;;;;;;;;;;5004190;28;20193;-55
2023/09/17 05:43:43;;;;;;;6.88;3.80;;;;;;;;;;4981239;28;20468;-56
2023/09/17 05:46:09;;;;;;;6.10;4.68;;;;;;;;;;4988370;28;20204;-55
2023/09/17 05:48:34;;;;;;;4.78;3.58;;;;;;;;;;5006106;28;20222;-55
2023/09/17 05:51:00;;;;;;;4.63;3.60;;;;;;;;;;4988843;28;20181;-55
2023/09/17 05:53:26;;;;;;;4.25;3.55;;;;;;;;;;5003721;28;20448;-56
2023/09/17 05:55:52;;;;;;;4.32;3.58;;;;;;;;;;5006792;28;20182;-56
2023/09/17 05:58:18;;;;;;;5.25;4.13;;;;;;;;;;4994727;28;20186;-55
2023/09/17 06:00:44;;;;;;;4.75;3.92;;;;;;;;;;4995616;28;20185;-55
2023/09/17 06:03:10;;;;;;;7.25;4.68;;;;;;;;;;4999822;28;20185;-55
2023/09/17 06:05:36;;;;;;;5.22;4.32;;;;;;;;;;5001901;28;20209;-56
2023/09/17 06:08:02;;;;;;;5.20;4.22;;;;;;;;;;4998698;28;20181;-55
2023/09/17 06:10:28;;;;;;;4.85;4.20;;;;;;;;;;4999999;28;20192;-55
2023/09/17 06:12:54;;;;;;;5.20;4.35;;;;;;;;;;4987290;28;20185;-55
2023/09/17 06:15:20;;;;;;;5.97;4.20;;;;;;;;;;5004005;28;20240;-55
2023/09/17 06:17:46;;;;;;;4.53;3.63;;;;;;;;;;4996903;28;20192;-55
2023/09/17 06:20:12;;;;;;;4.68;4.15;;;;;;;;;;4980991;28;20186;-55
2023/09/17 06:22:38;;;;;;;7.55;4.03;;;;;;;;;;5002398;28;20180;-55
2023/09/17 06:25:04;;;;;;;4.80;3.60;;;;;;;;;;5000801;28;20236;-55
2023/09/17 06:27:30;;;;;;;4.63;3.42;;;;;;;;;;4992002;28;20431;-55
2023/09/17 06:29:56;;;;;;;5.82;4.25;;;;;;;;;;4991669;28;20184;-55
2023/09/17 06:32:22;;;;;;;4.32;3.70;;;;;;;;;;4987771;28;20212;-55
2023/09/17 06:34:48;;;;;;;4.72;3.75;;;;;;;;;;4993666;28;20265;-55
2023/09/17 06:37:14;;;;;;;5.75;3.65;;;;;;;;;;4996766;28;20192;-55
2023/09/17 06:39:40;;;;;;;4.18;3.55;;;;;;;;;;5002537;28;20224;-55
2023/09/17 06:42:06;;;;;;;5.15;3.60;;;;;;;;;;4984385;28;20241;-55
2023/09/17 06:44:32;;;;;;;4.05;3.40;;;;;;;;;;4999569;28;20276;-55
2023/09/17 06:46:58;;;;;;;4.15;3.75;;;;;;;;;;4999600;28;20208;-54
2023/09/17 06:49:24;;;;;;;5.07;3.72;;;;;;;;;;5000410;28;20186;-54
2023/09/17 06:51:52;;;;;;;5.57;4.05;;;;;;;;;;4986272;28;20264;-55
2023/09/17 06:54:19;;;;;;;4.72;3.78;;;;;;;;;;4992580;28;20181;-54
2023/09/17 06:56:45;;;;;;;5.35;3.90;;;;;;;;;;5007955;28;20560;-54
2023/09/17 06:59:11;;;;;;;5.30;3.88;;;;;;;;;;4997209;28;20193;-54
2023/09/17 07:01:39;;;;;;;8.32;3.92;;;;;;;;;;4994748;28;20351;-54
2023/09/17 07:04:05;;;;;;;9.27;4.03;;;;;;;;;;5002486;28;20180;-54
2023/09/17 07:06:32;;;;;;;4.80;3.85;;;;;;;;;;4993552;28;20204;-54
2023/09/17 07:08:58;;;;;;;5.70;3.53;;;;;;;;;;4994206;28;20592;-54
2023/09/17 07:11:24;;;;;;;7.07;3.85;;;;;;;;;;5007173;28;20176;-51
2023/09/17 07:13:50;;;;;;;5.53;3.25;;;;;;;;;;4999521;28;20180;-50
2023/09/17 07:16:17;;;;;;;6.60;3.28;;;;;;;;;;5000086;28;20636;-50
2023/09/17 07:18:44;;;;;;;7.60;3.35;;;;;;;;;;5002558;28;20181;-50
2023/09/17 07:21:10;;;;;;;3.75;3.40;;;;;;;;;;5009881;28;20190;-50
2023/09/17 07:23:36;;;;;;;3.85;3.33;;;;;;;;;;5001258;28;20205;-50
2023/09/17 07:26:03;;;;;;;4.25;3.10;;;;;;;;;;5006303;28;20196;-50
2023/09/17 07:28:29;;;;;;;2.97;2.65;;;;;;;;;;5000836;28;20173;-50
2023/09/17 07:30:55;;;;;;;2.97;2.67;;;;;;;;;;5004686;28;20618;-51
2023/09/17 07:33:21;;;;;;;3.75;2.97;;;;;;;;;;5008576;28;20185;-50
2023/09/17 07:35:48;;;;;;;4.57;3.65;;;;;;;;;;5009369;28;20196;-50
2023/09/17 07:38:14;;;;;;;4.82;3.75;;;;;;;;;;5012938;28;20187;-50
2023/09/17 07:40:40;;;;;;;9.38;4.00;;;;;;;;;;4998222;28;20280;-50
2023/09/17 07:43:06;;;;;;;5.65;3.35;;;;;;;;;;4997844;28;20190;-51
2023/09/17 07:45:34;;;;;;;3.50;3.20;;;;;;;;;;5000106;28;20205;-51
2023/09/17 07:48:03;;;;;;;3.45;3.15;;;;;;;;;;5009485;28;20182;-50
2023/09/17 07:50:29;;;;;;;3.45;3.15;;;;;;;;;;5003035;28;20176;-50
2023/09/17 07:52:55;;;;;;;3.22;2.92;;;;;;;;;;5003764;28;20186;-50
2023/09/17 07:55:21;;;;;;;3.63;3.33;;;;;;;;;;5001421;28;20194;-50
2023/09/17 07:57:47;;;;;;;3.50;3.20;;;;;;;;;;4993229;28;20185;-51
2023/09/17 08:00:15;;;;;;;3.25;2.95;;;;;;;;;;4980250;28;20189;-50
2023/09/17 08:02:42;;;;;;;4.82;3.28;;;;;;;;;;5006596;28;20178;-50
2023/09/17 08:05:08;;;;;;;4.32;3.03;;;;;;;;;;5005287;28;20215;-50
2023/09/17 08:07:35;;;;;;;4.45;3.55;;;;;;;;;;5001887;28;20267;-50
2023/09/17 08:10:03;;;;;;;3.55;2.88;;;;;;;;;;4992027;28;20300;-50
2023/09/17 08:12:30;;;;;;;4.03;3.20;;;;;;;;;;4994406;28;20182;-51
2023/09/17 08:14:56;;;;;;;3.13;2.83;;;;;;;;;;5001070;28;20177;-50
2023/09/17 08:17:22;;;;;;;3.80;2.90;;;;;;;;;;4999192;28;20185;-50
2023/09/17 08:19:48;;;;;;;3.45;3.05;;;;;;;;;;5008594;28;20196;-50
2023/09/17 08:22:15;;;;;;;4.80;3.00;;;;;;;;;;5007005;28;20188;-50
2023/09/17 08:24:41;;;;;;;3.67;3.17;;;;;;;;;;5009357;28;20189;-50
2023/09/17 08:27:07;;;;;;;4.35;3.95;;;;;;;;;;4990019;28;20300;-50
2023/09/17 08:29:33;;;;;;;4.43;3.30;;;;;;;;;;4988982;28;20186;-50
2023/09/17 08:32:00;;;;;;;4.93;3.05;;;;;;;;;;5003147;28;20180;-50
2023/09/17 08:34:26;;;;;;;2.85;2.60;;;;;;;;;;5003634;28;20181;-51
2023/09/17 08:36:53;;;;;;;3.67;3.00;;;;;;;;;;5003760;28;20220;-50
2023/09/17 08:39:19;;;;;;;2.80;2.60;;;;;;;;;;4999892;28;20572;-50
2023/09/17 08:41:46;;;;;;;3.25;2.78;;;;;;;;;;4993716;28;20189;-50
2023/09/17 08:44:12;;;;;;;3.28;2.78;;;;;;;;;;4987357;28;20264;-50
2023/09/17 08:46:39;;;;;;;3.47;3.15;;;;;;;;;;4993918;28;20530;-50
2023/09/17 08:49:05;;;;;;;3.47;3.17;;;;;;;;;;5007878;28;20254;-49
2023/09/17 08:51:37;;;;;;;3.40;3.10;;;;;;;;;;5006822;28;20543;-50
2023/09/17 08:54:11;;;;;;;3.55;2.83;;;;;;;;;;4996071;28;20256;-50
2023/09/17 08:56:40;;;;;;;3.80;2.78;;;;;;;;;;5002480;28;20177;-50
2023/09/17 08:59:35;;;;;;;2.72;2.50;;;;;;;;;;4995170;28;20572;-50
2023/09/17 09:02:05;;;;;;;3.10;2.75;;;;;;;;;;5001634;28;20288;-50
2023/09/17 09:04:34;;;;;;;3.00;2.72;;;;;;;;;;4993784;28;20502;-50
2023/09/17 09:07:01;;;;;;;3.92;3.13;;;;;;;;;;4997745;28;20231;-50
2023/09/17 09:09:27;;;;;;;3.17;2.80;;;;;;;;;;5004203;28;20180;-50
2023/09/17 09:11:53;;;;;;;3.58;3.20;;;;;;;;;;4996100;28;20263;-49
2023/09/17 09:14:20;;;;;;;3.80;3.10;;;;;;;;;;4993032;28;20448;-50
2023/09/17 09:16:46;;;;;;;3.95;3.00;;;;;;;;;;5000658;28;20268;-49
2023/09/17 09:19:12;;;;;;;3.92;2.75;;;;;;;;;;5005320;28;20270;-50
2023/09/17 09:21:38;;;;;;;4.63;2.92;;;;;;;;;;5002889;28;20184;-50
2023/09/17 09:24:05;;;;;;;3.65;2.90;;;;;;;;;;4999832;28;20246;-50
2023/09/17 09:26:33;;;;;;;3.30;2.90;;;;;;;;;;4994742;28;20675;-49
2023/09/17 09:28:59;;;;;;;3.00;2.70;;;;;;;;;;4988104;28;20204;-50
2023/09/17 09:31:26;;;;;;;3.97;2.90;;;;;;;;;;4987563;28;20225;-49
2023/09/17 09:33:52;;;;;;;3.17;2.85;;;;;;;;;;4991863;28;20192;-49
2023/09/17 09:36:19;;;;;;;3.97;2.88;;;;;;;;;;4994732;28;20488;-50
2023/09/17 09:38:45;;;;;;;3.67;2.97;;;;;;;;;;4987749;28;20204;-49
2023/09/17 09:41:11;;;;;;;3.25;2.95;;;;;;;;;;5005859;28;20176;-49
2023/09/17 09:43:37;;;;;;;3.60;2.80;;;;;;;;;;4989257;28;20189;-49
2023/09/17 09:46:06;;;;;;;2.75;2.55;;;;;;;;;;4996704;28;20576;-49
2023/09/17 09:48:36;;;;;;;3.42;2.90;;;;;;;;;;4992608;28;20182;-49
2023/09/17 09:51:03;;;;;;;2.78;2.58;;;;;;;;;;5001328;28;20191;-49
2023/09/17 09:53:29;;;;;;;3.60;2.92;;;;;;;;;;4995206;28;20562;-50
2023/09/17 09:55:56;;;;;;;3.35;2.75;;;;;;;;;;4996264;28;20192;-49
2023/09/17 09:58:22;;;;;;;2.90;2.60;;;;;;;;;;4990058;28;20189;-49
2023/09/17 10:00:48;;;;;;;2.90;2.40;;;;;;;;;;4997954;28;20516;-50
2023/09/17 10:03:17;;;;;;;2.63;2.42;;;;;;;;;;4991677;28;20189;-50
2023/09/17 10:05:44;;;;;;;2.90;2.70;;;;;;;;;;5002613;28;20239;-49
2023/09/17 10:08:11;;;;;;;2.72;2.50;;;;;;;;;;4986018;28;20273;-50
2023/09/17 10:10:37;;;;;;;2.78;2.58;;;;;;;;;;4995462;28;20453;-50
2023/09/17 10:13:06;;;;;;;2.70;2.50;;;;;;;;;;5000168;28;20204;-50
2023/09/17 10:15:33;;;;;;;2.65;2.45;;;;;;;;;;5001417;28;20422;-50
2023/09/17 10:17:59;;;;;;;3.08;2.63;;;;;;;;;;5001230;28;20195;-50
2023/09/17 10:20:26;;;;;;;3.05;2.35;;;;;;;;;;4998502;28;20612;-50
2023/09/17 10:22:52;;;;;;;3.45;2.88;;;;;;;;;;4989624;28;20276;-50
2023/09/17 10:25:18;;;;;;;2.40;2.17;;;;;;;;;;5002673;28;20185;-49
2023/09/17 10:27:48;;;;;;;2.28;1.95;;;;;;;;;;4993360;28;20659;-50
2023/09/17 10:30:15;;;;;;;2.70;2.15;;;;;;;;;;5009858;28;20176;-49
2023/09/17 10:32:41;;;;;;;2.47;2.20;;;;;;;;;;5007674;28;20207;-50
2023/09/17 10:35:07;;;;;;;2.72;2.50;;;;;;;;;;4999465;28;20200;-49
2023/09/17 10:37:35;;;;;;;2.70;2.50;;;;;;;;;;5000401;28;20189;-49
2023/09/17 10:40:01;;;;;;;3.65;2.88;;;;;;;;;;4995055;28;20189;-49
2023/09/17 10:42:29;;;;;;;3.15;2.10;;;;;;;;;;4991548;28;20613;-49
2023/09/17 10:44:56;;;;;;;2.80;2.50;;;;;;;;;;5006843;28;20177;-49
2023/09/17 10:47:24;;;;;;;2.40;2.20;;;;;;;;;;4981741;28;20676;-49
2023/09/17 10:49:50;;;;;;;4.35;2.08;;;;;;;;;;4993859;28;20336;-50
2023/09/17 10:52:16;;;;;;;2.30;2.10;;;;;;;;;;5001874;28;20248;-49
2023/09/17 10:54:42;;;;;;;2.38;2.17;;;;;;;;;;5003768;28;20189;-50
2023/09/17 10:57:11;;;;;;;3.65;1.92;;;;;;;;;;4987287;28;20223;-49
2023/09/17 10:59:38;;;;;;;1.95;1.75;;;;;;;;;;5002764;28;20207;-49
2023/09/17 11:02:04;;;;;;;3.78;2.15;;;;;;;;;;4995773;28;20212;-49
2023/09/17 11:04:31;;;;;;;2.75;1.90;;;;;;;;;;4993250;28;20896;-50
2023/09/17 11:07:00;;;;;;;2.42;2.10;;;;;;;;;;4989957;28;20239;-50
2023/09/17 11:09:26;;;;;;;2.38;1.95;;;;;;;;;;5006210;28;20189;-50
2023/09/17 11:11:52;;;;;;;2.30;2.10;;;;;;;;;;4995660;28;20284;-49
2023/09/17 11:14:18;;;;;;;1.70;1.60;;;;;;;;;;5006004;28;20185;-50
2023/09/17 11:16:47;;;;;;;2.08;1.95;;;;;;;;;;4995792;28;20198;-49
2023/09/17 11:19:16;;;;;;;2.15;1.95;;;;;;;;;;4999754;28;20238;-49
2023/09/17 11:21:49;;;;;;;2.33;2.00;;;;;;;;;;4986149;28;20203;-49
2023/09/17 11:24:17;;;;;;;2.00;1.90;;;;;;;;;;4995973;28;20611;-50
2023/09/17 11:26:45;;;;;;;2.13;2.03;;;;;;;;;;4982573;28;20237;-50
2023/09/17 11:29:11;;;;;;;2.60;2.00;;;;;;;;;;5004214;28;20263;-49
2023/09/17 11:32:01;;;;;;;2.33;2.13;;;;;;;;;;4995504;28;20189;-49
2023/09/17 11:34:27;;;;;;;2.42;2.10;;;;;;;;;;4999549;28;20889;-49
2023/09/17 11:36:53;;;;;;;3.28;2.00;;;;;;;;;;4997932;28;20221;-49
2023/09/17 11:39:22;;;;;;;1.77;1.67;;;;;;;;;;5005877;28;20177;-50
2023/09/17 11:41:53;;;;;;;2.13;1.92;;;;;;;;;;4993692;28;20285;-49
2023/09/17 11:44:23;;;;;;;2.05;1.88;;;;;;;;;;4995276;28;20188;-49
2023/09/17 11:46:49;;;;;;;3.58;2.08;;;;;;;;;;4991890;28;20237;-51
2023/09/17 11:49:15;;;;;;;1.80;1.70;;;;;;;;;;4994536;28;20506;-50
2023/09/17 11:51:43;;;;;;;1.73;1.58;;;;;;;;;;4993202;28;20186;-50
2023/09/17 11:54:15;;;;;;;1.40;1.30;;;;;;;;;;5002596;28;20177;-50
2023/09/17 11:56:49;;;;;;;2.80;1.15;;;;;;;;;;5002857;28;20305;-50
2023/09/17 11:59:18;;;;;;;1.30;1.20;;;;;;;;;;4989882;28;20179;-50
2023/09/17 12:01:54;;;;;;;1.20;1.02;;;;;;;;;;5004023;28;20188;-50
2023/09/17 12:04:31;;;;;;;1.65;1.30;;;;;;;;;;4983141;28;20191;-50
2023/09/17 12:06:57;;;;;;;1.88;1.27;;;;;;;;;;4979195;28;20241;-50
2023/09/17 12:11:59;;;;;;;1.40;1.30;;;;;;;;;;4999287;28;20188;-50
2023/09/17 12:14:25;;;;;;;1.40;1.30;;;;;;;;;;4994597;28;20231;-50
2023/09/17 12:16:52;;;;;;;1.27;1.10;;;;;;;;;;5000561;28;20467;-50
2023/09/17 12:19:18;;;;;;;1.67;1.58;;;;;;;;;;5001452;28;20180;-50
2023/09/17 12:21:46;;;;;;;2.08;1.50;;;;;;;;;;4991379;28;20185;-49
2023/09/17 12:24:28;;;;;;;2.15;1.10;;;;;;;;;;4999787;28;20326;-50
2023/09/17 12:27:19;;;;;;;1.45;1.35;;;;;;;;;;4997916;28;20252;-50
2023/09/17 12:29:46;;;;;;;1.52;1.40;;;;;;;;;;4993333;28;20319;-50
2023/09/17 12:32:12;;;;;;;1.73;1.63;;;;;;;;;;5004721;28;20425;-51
2023/09/17 12:34:38;;;;;;;1.50;1.40;;;;;;;;;;4995003;28;20178;-50
2023/09/17 12:37:05;;;;;;;1.70;1.30;;;;;;;;;;4987541;28;20237;-50
2023/09/17 12:39:31;;;;;;;1.80;1.45;;;;;;;;;;4988088;28;20176;-50
2023/09/17 12:41:57;;;;;;;1.40;1.30;;;;;;;;;;4991586;28;20507;-50
2023/09/17 12:44:26;;;;;;;1.38;1.17;;;;;;;;;;4992084;28;20205;-50
2023/09/17 12:46:52;;;;;;;1.45;1.35;;;;;;;;;;4988119;28;20649;-50
2023/09/17 12:49:18;;;;;;;1.27;1.17;;;;;;;;;;5000428;28;20264;-50
2023/09/17 12:51:44;;;;;;;1.40;1.30;;;;;;;;;;5007166;28;20208;-50
2023/09/17 12:54:11;;;;;;;1.63;1.00;;;;;;;;;;4993429;28;20598;-50
2023/09/17 12:56:38;;;;;;;1.42;1.13;;;;;;;;;;4994274;28;20604;-50
2023/09/17 12:59:04;;;;;;;1.30;1.10;;;;;;;;;;5004198;28;20181;-50
2023/09/17 13:01:33;;;;;;;1.35;1.25;;;;;;;;;;4995602;28;20243;-50
2023/09/17 13:04:03;;;;;;;1.27;1.17;;;;;;;;;;5003226;28;20195;-50
2023/09/17 13:06:30;;;;;;;0.98;0.90;;;;;;;;;;4995550;28;20295;-50
2023/09/17 13:08:56;;;;;;;1.45;1.25;;;;;;;;;;4989146;28;20196;-50
2023/09/17 13:11:25;;;;;;;1.67;1.20;;;;;;;;;;5002456;28;20181;-50
2023/09/17 13:13:51;;;;;;;1.17;1.08;;;;;;;;;;4999894;28;20228;-51
2023/09/17 13:16:18;;;;;;;1.13;1.02;;;;;;;;;;5002105;28;20560;-51
2023/09/17 13:18:47;;;;;;;1.30;1.20;;;;;;;;;;4990963;28;20188;-51
2023/09/17 13:21:14;;;;;;;1.17;1.17;;;;;;;;;;5007569;28;20189;-50
2023/09/17 13:23:40;;;;;;;1.27;1.17;;;;;;;;;;5005190;28;20246;-51
2023/09/17 13:26:07;;;;;;;1.55;1.45;;;;;;;;;;4998684;28;20216;-50
2023/09/17 13:28:33;;;;;;;1.48;1.17;;;;;;;;;;5000754;28;20470;-50
2023/09/17 13:31:02;;;;;;;1.60;1.38;;;;;;;;;;4996278;28;20611;-50
2023/09/17 13:33:28;;;;;;;1.98;1.60;;;;;;;;;;4993359;28;20422;-50
2023/09/17 13:35:54;;;;;;;1.30;1.20;;;;;;;;;;4997970;28;20267;-50
2023/09/17 13:38:20;;;;;;;1.63;1.50;;;;;;;;;;5000880;28;20216;-50
2023/09/17 13:40:47;;;;;;;2.55;1.60;;;;;;;;;;4998425;28;20491;-53
2023/09/17 13:43:14;;;;;;;5.45;1.83;;;;;;;;;;5003831;28;20222;-54
2023/09/17 13:45:50;;;;;;;3.47;1.20;;;;;;;;;;4999669;28;20610;-54
2023/09/17 13:48:17;;;;;;;4.07;1.90;;;;;;;;;;5001501;28;20490;-54
2023/09/17 13:50:43;;;;;;;3.42;1.50;;;;;;;;;;4997323;28;20199;-54
2023/09/17 13:53:09;;;;;;;6.93;1.58;;;;;;;;;;4996269;28;20594;-54
2023/09/17 13:55:35;;;;;;;3.22;1.35;;;;;;;;;;4993676;28;20189;-54
2023/09/17 13:58:01;;;;;;;2.17;1.40;;;;;;;;;;4996247;28;20227;-54
2023/09/17 14:00:27;;;;;;;1.92;1.73;;;;;;;;;;5001636;28;20203;-54
2023/09/17 14:02:53;;;;;;;2.20;1.50;;;;;;;;;;4996118;28;20197;-54
2023/09/17 14:05:19;;;;;;;1.70;1.60;;;;;;;;;;5002127;28;20196;-54
2023/09/17 14:07:45;;;;;;;1.85;1.50;;;;;;;;;;5006213;28;20192;-54
2023/09/17 14:10:11;;;;;;;2.50;1.65;;;;;;;;;;4996432;28;20189;-54
2023/09/17 14:12:37;;;;;;;1.38;1.27;;;;;;;;;;4996372;28;20243;-54
2023/09/17 14:15:03;;;;;;;1.90;1.58;;;;;;;;;;5003279;28;20557;-54
2023/09/17 14:17:29;;;;;;;1.73;1.63;;;;;;;;;;5006167;28;20176;-54
2023/09/17 14:19:55;;;;;;;1.60;1.50;;;;;;;;;;5010150;28;20220;-54
2023/09/17 14:22:21;;;;;;;2.78;1.67;;;;;;;;;;4996692;28;20184;-54
2023/09/17 14:24:47;;;;;;;1.60;1.50;;;;;;;;;;5001732;28;20222;-54
2023/09/17 14:27:13;;;;;;;2.70;1.60;;;;;;;;;;4997155;28;20276;-54
2023/09/17 14:29:40;;;;;;;1.77;1.67;;;;;;;;;;5004028;28;20227;-54
2023/09/17 14:32:06;;;;;;;2.00;1.83;;;;;;;;;;5013560;28;20450;-53
2023/09/17 14:34:32;;;;;;;1.95;1.60;;;;;;;;;;5000236;28;20185;-53
2023/09/17 14:36:58;;;;;;;3.00;2.00;;;;;;;;;;4996190;28;20204;-53
2023/09/17 14:39:24;;;;;;;1.75;1.65;;;;;;;;;;4993013;28;20232;-53
2023/09/17 14:41:52;;;;;;;1.63;1.52;;;;;;;;;;4996036;28;20267;-53
2023/09/17 14:44:19;;;;;;;1.65;1.48;;;;;;;;;;4990374;28;20612;-53